Time;durP1;ratioP1;P1;durP2;ratioP2;P2;SDS_P1;SDS_P2;PMS_P1;PMS_P2;Temp;Humidity;BMP_temperature;BMP_pressure;BME280_temperature;BME280_humidity;BME280_pressure;Samples;Min_cycle;Max_cycle;Signal;HPM_P1;HPM_P2
2022/04/03 00:00:23;;;;;;;24.83;23.83;;;23.60;36.40;;;;;;5054138;28;20565;-51
2022/04/03 00:02:49;;;;;;;27.47;26.47;;;23.60;36.50;;;;;;5054770;28;20460;-48
2022/04/03 00:05:16;;;;;;;27.83;26.73;;;23.50;36.60;;;;;;5070890;28;20464;-48
2022/04/03 00:07:43;;;;;;;24.70;23.80;;;23.40;36.70;;;;;;5054173;28;20822;-49
2022/04/03 00:10:10;;;;;;;24.53;23.63;;;23.50;36.80;;;;;;5054105;28;20444;-48
2022/04/03 00:12:37;;;;;;;24.83;23.83;;;23.70;36.70;;;;;;5053932;28;20448;-52
2022/04/03 00:15:06;;;;;;;26.07;24.97;;;23.70;36.50;;;;;;5053909;28;20810;-48
2022/04/03 00:17:33;;;;;;;24.90;23.90;;;23.70;36.40;;;;;;5053686;28;20457;-50
2022/04/03 00:20:00;;;;;;;23.97;23.10;;;23.70;36.50;;;;;;5053532;28;20481;-48
2022/04/03 00:22:28;;;;;;;25.00;24.00;;;23.60;36.40;;;;;;5053801;28;20444;-49
2022/04/03 00:24:55;;;;;;;25.57;24.63;;;23.50;36.50;;;;;;5053641;28;20500;-49
2022/04/03 00:27:22;;;;;;;25.20;24.20;;;23.50;36.60;;;;;;5053473;28;20456;-48
2022/04/03 00:29:49;;;;;;;25.30;24.33;;;23.40;36.70;;;;;;5053630;28;20441;-48
2022/04/03 00:32:17;;;;;;;25.17;24.27;;;23.40;36.80;;;;;;5053617;28;20949;-48
2022/04/03 00:34:44;;;;;;;26.07;24.97;;;23.50;36.80;;;;;;5053532;28;20448;-48
2022/04/03 00:37:10;;;;;;;25.70;24.70;;;23.60;36.70;;;;;;5052926;28;20467;-48
2022/04/03 00:39:37;;;;;;;25.27;24.27;;;23.70;36.50;;;;;;5053534;28;20846;-51
2022/04/03 00:42:06;;;;;;;25.87;24.87;;;23.70;36.30;;;;;;5053359;28;20448;-48
2022/04/03 00:44:35;;;;;;;25.40;24.50;;;23.70;36.30;;;;;;5053174;28;20452;-48
2022/04/03 00:47:01;;;;;;;24.83;23.87;;;23.60;36.30;;;;;;5052898;28;20530;-53
2022/04/03 00:49:30;;;;;;;24.67;23.77;;;23.60;36.40;;;;;;5053573;28;20953;-48
2022/04/03 00:51:57;;;;;;;24.90;23.90;;;23.50;36.50;;;;;;5052859;28;20452;-48
2022/04/03 00:54:24;;;;;;;24.43;23.53;;;23.40;36.50;;;;;;5053312;28;20452;-48
2022/04/03 00:56:51;;;;;;;24.50;23.60;;;23.40;36.80;;;;;;5052825;28;20476;-48
2022/04/03 00:59:18;;;;;;;24.17;23.27;;;23.50;36.70;;;;;;5053039;28;21003;-49
2022/04/03 01:01:45;;;;;;;25.20;24.30;;;23.70;37.10;;;;;;5053135;28;20444;-48
2022/04/03 01:04:12;;;;;;;25.83;24.93;;;23.70;36.30;;;;;;5053043;28;20805;-50
2022/04/03 01:06:40;;;;;;;25.10;24.20;;;23.70;36.40;;;;;;5052722;28;20473;-48
2022/04/03 01:09:07;;;;;;;25.87;24.87;;;23.60;36.40;;;;;;5052677;28;20444;-48
2022/04/03 01:11:35;;;;;;;25.17;24.27;;;23.60;36.40;;;;;;5052816;28;20978;-51
2022/04/03 01:14:02;;;;;;;24.80;23.47;;;23.50;36.40;;;;;;5052894;28;20445;-48
2022/04/03 01:16:29;;;;;;;25.07;24.07;;;23.40;36.40;;;;;;5052473;28;20479;-50
2022/04/03 01:18:55;;;;;;;23.87;22.97;;;23.30;36.50;;;;;;5052674;28;20444;-49
2022/04/03 01:21:22;;;;;;;24.57;23.67;;;23.30;36.60;;;;;;5052746;28;20448;-48
2022/04/03 01:23:50;;;;;;;24.20;23.30;;;23.20;36.70;;;;;;5052640;28;20441;-51
2022/04/03 01:26:18;;;;;;;23.30;22.40;;;23.10;36.80;;;;;;5051951;28;20475;-49
2022/04/03 01:28:45;;;;;;;24.67;23.77;;;23.30;37.00;;;;;;5052507;28;20448;-48
2022/04/03 01:31:12;;;;;;;24.10;23.20;;;23.40;36.80;;;;;;5052570;28;20447;-48
2022/04/03 01:33:38;;;;;;;25.40;24.40;;;23.50;36.70;;;;;;5052476;28;20449;-48
2022/04/03 01:36:06;;;;;;;24.33;23.43;;;23.50;36.50;;;;;;5052262;28;20471;-50
2022/04/03 01:38:33;;;;;;;25.17;24.27;;;23.50;36.50;;;;;;5052443;28;20527;-48
2022/04/03 01:40:59;;;;;;;24.27;23.40;;;23.40;37.00;;;;;;5051884;28;20488;-48
2022/04/03 01:43:28;;;;;;;24.67;23.77;;;23.30;36.60;;;;;;5052372;28;20444;-48
2022/04/03 01:45:55;;;;;;;24.10;23.20;;;23.20;36.60;;;;;;5051998;28;20464;-48
2022/04/03 01:48:22;;;;;;;24.37;23.50;;;23.10;36.70;;;;;;5052237;28;20774;-49
2022/04/03 01:50:48;;;;;;;24.90;24.00;;;23.10;36.90;;;;;;5052013;28;20444;-48
2022/04/03 01:53:15;;;;;;;24.73;23.83;;;23.10;37.10;;;;;;5052163;28;20455;-48
2022/04/03 01:55:42;;;;;;;25.20;24.30;;;23.40;37.10;;;;;;5051588;28;20870;-47
2022/04/03 01:58:09;;;;;;;26.07;25.07;;;23.40;36.70;;;;;;5051183;28;20470;-48
2022/04/03 02:00:38;;;;;;;24.60;23.70;;;23.40;36.70;;;;;;5051792;28;20915;-48
2022/04/03 02:03:05;;;;;;;26.90;25.90;;;23.30;36.70;;;;;;5051965;28;21022;-48
2022/04/03 02:05:32;;;;;;;25.60;24.60;;;23.20;36.70;;;;;;5051695;28;20522;-51
2022/04/03 02:07:58;;;;;;;26.40;25.40;;;23.20;36.70;;;;;;5051781;28;20923;-50
2022/04/03 02:10:25;;;;;;;25.90;24.90;;;23.10;36.70;;;;;;5051613;28;20441;-48
2022/04/03 02:12:52;;;;;;;25.90;24.90;;;23.10;36.80;;;;;;5051840;28;20444;-52
2022/04/03 02:15:19;;;;;;;26.03;25.03;;;23.00;36.80;;;;;;5051590;28;20825;-48
2022/04/03 02:17:47;;;;;;;25.87;24.90;;;23.00;36.90;;;;;;5051642;28;20539;-48
2022/04/03 02:20:14;;;;;;;26.00;25.00;;;23.00;37.00;;;;;;5051562;28;20487;-48
2022/04/03 02:22:40;;;;;;;25.63;24.73;;;23.00;37.10;;;;;;5051634;28;20523;-49
2022/04/03 02:25:09;;;;;;;26.97;25.97;;;23.10;37.10;;;;;;5051507;28;20451;-48
2022/04/03 02:27:37;;;;;;;25.13;24.23;;;23.20;37.10;;;;;;5051013;28;20449;-53
2022/04/03 02:30:05;;;;;;;26.50;25.50;;;23.20;36.90;;;;;;5051644;28;20505;-48
2022/04/03 02:32:32;;;;;;;27.93;26.83;;;23.20;36.80;;;;;;5051492;28;20451;-52
2022/04/03 02:35:00;;;;;;;27.30;26.30;;;23.20;36.90;;;;;;5051320;28;20455;-48
2022/04/03 02:37:27;;;;;;;27.00;26.00;;;23.20;36.90;;;;;;5051269;28;20449;-48
2022/04/03 02:39:54;;;;;;;27.00;26.00;;;23.20;36.90;;;;;;5051387;28;21002;-48
2022/04/03 02:42:20;;;;;;;26.60;25.63;;;23.10;37.00;;;;;;5051175;28;20448;-54
2022/04/03 02:44:47;;;;;;;26.83;25.80;;;23.00;37.00;;;;;;5051378;28;20475;-50
2022/04/03 02:47:14;;;;;;;27.10;26.10;;;23.00;37.00;;;;;;5051058;28;20483;-50
2022/04/03 02:49:41;;;;;;;26.87;25.87;;;23.00;37.20;;;;;;5051368;28;20440;-51
2022/04/03 02:52:09;;;;;;;26.90;25.90;;;23.10;37.20;;;;;;5051091;28;20963;-48
2022/04/03 02:54:36;;;;;;;26.43;25.53;;;23.20;37.00;;;;;;5050814;28;20810;-48
2022/04/03 02:57:03;;;;;;;26.80;25.80;;;23.20;36.90;;;;;;5050961;28;21011;-48
2022/04/03 02:59:30;;;;;;;27.10;26.00;;;23.20;36.90;;;;;;5051224;28;20931;-48
2022/04/03 03:01:56;;;;;;;26.43;25.53;;;23.10;36.80;;;;;;5051353;28;20816;-48
2022/04/03 03:04:23;;;;;;;27.53;26.53;;;23.10;36.80;;;;;;5051266;28;20445;-53
2022/04/03 03:06:50;;;;;;;26.90;25.90;;;23.00;36.90;;;;;;5050665;28;20474;-49
2022/04/03 03:09:18;;;;;;;27.90;26.80;;;23.00;36.90;;;;;;5051054;28;20468;-48
2022/04/03 03:11:45;;;;;;;26.90;25.90;;;22.90;36.90;;;;;;5055077;28;20502;-48
2022/04/03 03:14:12;;;;;;;27.43;26.40;;;22.90;37.10;;;;;;5055118;28;20452;-48
2022/04/03 03:16:38;;;;;;;27.30;26.20;;;23.00;37.20;;;;;;5054746;28;20465;-48
2022/04/03 03:19:06;;;;;;;27.43;26.43;;;23.10;37.10;;;;;;5054951;28;20945;-50
2022/04/03 03:21:32;;;;;;;27.10;26.10;;;23.10;37.00;;;;;;5054836;28;20472;-48
2022/04/03 03:23:59;;;;;;;27.50;26.50;;;23.20;36.90;;;;;;5054719;28;20448;-48
2022/04/03 03:26:27;;;;;;;28.37;27.37;;;23.20;36.80;;;;;;5054582;28;20468;-50
2022/04/03 03:28:54;;;;;;;26.27;25.27;;;23.10;36.80;;;;;;5054839;28;20452;-51
2022/04/03 03:31:21;;;;;;;26.80;25.80;;;23.10;36.90;;;;;;5054819;28;20437;-48
2022/04/03 03:33:48;;;;;;;28.87;27.87;;;23.10;36.80;;;;;;5054790;28;20454;-48
2022/04/03 03:36:15;;;;;;;27.50;26.50;;;23.00;36.80;;;;;;5054364;28;20494;-48
2022/04/03 03:38:41;;;;;;;26.77;25.77;;;22.90;36.80;;;;;;5054482;28;20459;-48
2022/04/03 03:41:09;;;;;;;26.33;25.43;;;22.90;36.90;;;;;;5054254;28;20476;-51
2022/04/03 03:43:37;;;;;;;27.00;26.00;;;23.00;37.00;;;;;;5054651;28;20444;-48
2022/04/03 03:46:04;;;;;;;26.53;25.53;;;22.90;36.90;;;;;;5054289;28;20475;-48
2022/04/03 03:48:31;;;;;;;25.70;24.80;;;23.00;37.10;;;;;;5054468;28;20471;-49
2022/04/03 03:50:57;;;;;;;26.43;25.53;;;23.20;37.00;;;;;;5054507;28;20440;-48
2022/04/03 03:53:24;;;;;;;26.13;25.23;;;23.20;36.90;;;;;;5054408;28;20451;-49
2022/04/03 03:55:52;;;;;;;26.63;25.63;;;23.20;36.90;;;;;;5054024;28;20534;-48
2022/04/03 03:58:18;;;;;;;26.63;25.73;;;23.40;36.80;;;;;;5053990;28;20799;-48
2022/04/03 04:00:47;;;;;;;29.03;28.03;;;23.70;36.70;;;;;;5054174;28;20519;-49
2022/04/03 04:03:13;;;;;;;27.93;26.93;;;24.10;36.40;;;;;;5054209;28;20452;-49
2022/04/03 04:05:40;;;;;;;31.03;29.70;;;24.20;36.10;;;;;;5053715;28;20468;-48
2022/04/03 04:08:08;;;;;;;30.60;29.50;;;24.10;35.80;;;;;;5053976;28;20507;-49
2022/04/03 04:10:35;;;;;;;29.67;28.57;;;24.20;35.80;;;;;;5054070;28;20452;-51
2022/04/03 04:13:03;;;;;;;32.00;30.80;;;24.20;35.70;;;;;;5053870;28;20445;-48
2022/04/03 04:15:30;;;;;;;28.87;27.87;;;24.10;35.80;;;;;;5053646;28;20464;-49
2022/04/03 04:17:58;;;;;;;29.53;28.43;;;24.10;35.90;;;;;;5053869;28;20452;-48
2022/04/03 04:20:25;;;;;;;30.33;29.13;;;24.30;36.00;;;;;;5053737;28;20839;-48
2022/04/03 04:22:53;;;;;;;29.97;28.87;;;24.50;35.70;;;;;;5052926;28;20455;-49
2022/04/03 04:25:20;;;;;;;29.40;28.40;;;24.40;35.50;;;;;;5053524;28;20995;-52
2022/04/03 04:27:48;;;;;;;29.87;28.70;;;24.40;35.50;;;;;;5053634;28;20449;-48
2022/04/03 04:30:16;;;;;;;29.80;28.70;;;24.50;35.40;;;;;;5053280;28;20452;-50
2022/04/03 04:32:43;;;;;;;29.13;28.13;;;24.40;35.40;;;;;;5053658;28;20947;-50
2022/04/03 04:35:13;;;;;;;29.10;28.10;;;24.50;35.50;;;;;;5053451;28;20444;-52
2022/04/03 04:37:40;;;;;;;30.57;29.47;;;24.30;35.40;;;;;;5053188;28;20452;-48
2022/04/03 04:40:09;;;;;;;30.40;29.30;;;24.40;35.60;;;;;;5053427;28;20538;-48
2022/04/03 04:42:36;;;;;;;29.40;28.30;;;24.40;35.70;;;;;;5053497;28;20818;-48
2022/04/03 04:45:03;;;;;;;31.53;30.43;;;24.60;35.60;;;;;;5053174;28;20444;-48
2022/04/03 04:47:34;;;;;;;30.73;29.63;;;24.70;35.40;;;;;;5053113;28;20449;-53
2022/04/03 04:50:01;;;;;;;29.83;28.73;;;24.70;35.20;;;;;;5053020;28;20974;-48
2022/04/03 04:52:29;;;;;;;29.03;27.93;;;24.70;35.20;;;;;;5053051;28;20452;-48
2022/04/03 04:54:56;;;;;;;32.43;31.33;;;24.60;35.20;;;;;;5052961;28;20571;-51
2022/04/03 04:57:23;;;;;;;31.63;30.43;;;24.60;35.30;;;;;;5052930;28;20447;-48
2022/04/03 04:59:50;;;;;;;30.80;29.70;;;24.70;35.50;;;;;;5052876;28;20789;-48
2022/04/03 05:02:16;;;;;;;30.70;29.60;;;24.80;35.30;;;;;;5053098;28;20451;-53
2022/04/03 05:04:43;;;;;;;31.40;30.30;;;25.00;35.20;;;;;;5052981;28;20445;-51
2022/04/03 05:07:10;;;;;;;33.50;32.30;;;25.00;35.00;;;;;;5052651;28;20471;-48
2022/04/03 05:09:39;;;;;;;32.23;31.13;;;25.00;34.90;;;;;;5052519;28;20508;-49
2022/04/03 05:12:07;;;;;;;32.10;31.00;;;24.90;34.90;;;;;;5052940;28;20441;-50
2022/04/03 05:14:33;;;;;;;30.90;29.80;;;24.80;35.00;;;;;;5052874;28;20958;-48
2022/04/03 05:17:00;;;;;;;32.47;31.27;;;24.70;35.10;;;;;;5052293;28;20475;-49
2022/04/03 05:19:27;;;;;;;33.13;31.83;;;24.80;35.20;;;;;;5052722;28;20444;-52
2022/04/03 05:21:54;;;;;;;30.83;29.63;;;25.00;35.10;;;;;;5052611;28;21029;-48
2022/04/03 05:24:21;;;;;;;29.33;28.23;;;25.00;35.00;;;;;;5052653;28;20449;-48
2022/04/03 05:26:49;;;;;;;27.50;26.50;;;24.90;34.90;;;;;;5052303;28;20487;-49
2022/04/03 05:29:15;;;;;;;29.10;28.00;;;24.90;34.90;;;;;;5052516;28;20954;-49
2022/04/03 05:31:42;;;;;;;28.70;27.70;;;24.80;34.90;;;;;;5052267;28;20445;-48
2022/04/03 05:34:09;;;;;;;28.93;27.83;;;24.80;35.10;;;;;;5052545;28;20449;-48
2022/04/03 05:36:36;;;;;;;31.67;30.47;;;25.10;35.00;;;;;;5052071;28;20459;-48
2022/04/03 05:39:04;;;;;;;30.73;29.63;;;25.10;34.70;;;;;;5052356;28;20449;-48
2022/04/03 05:41:31;;;;;;;28.93;27.83;;;25.10;34.80;;;;;;5052383;28;20480;-49
2022/04/03 05:43:59;;;;;;;27.80;26.80;;;25.00;34.70;;;;;;5052257;28;20445;-53
2022/04/03 05:46:26;;;;;;;29.07;28.07;;;24.90;34.80;;;;;;5051680;28;20464;-48
2022/04/03 05:48:53;;;;;;;31.97;30.77;;;24.90;34.90;;;;;;5052311;28;20456;-48
2022/04/03 05:51:20;;;;;;;31.03;29.93;;;24.80;34.90;;;;;;5052030;28;20437;-50
2022/04/03 05:53:47;;;;;;;28.27;27.27;;;25.00;35.00;;;;;;5052145;28;20456;-48
2022/04/03 05:56:14;;;;;;;29.00;28.00;;;25.10;34.80;;;;;;5052502;28;21049;-49
2022/04/03 05:58:40;;;;;;;27.73;26.73;;;25.10;34.50;;;;;;5051915;28;20445;-49
2022/04/03 06:01:08;;;;;;;28.97;27.90;;;25.00;34.70;;;;;;5051449;28;20484;-49
2022/04/03 06:03:35;;;;;;;30.50;29.40;;;25.00;34.80;;;;;;5051974;28;20913;-51
2022/04/03 06:06:02;;;;;;;28.97;27.97;;;24.90;34.80;;;;;;5051712;28;20468;-49
2022/04/03 06:08:29;;;;;;;30.13;29.03;;;24.90;34.90;;;;;;5051848;28;20460;-49
2022/04/03 06:10:55;;;;;;;29.27;28.17;;;24.90;35.00;;;;;;5051838;28;20447;-49
2022/04/03 06:13:25;;;;;;;28.83;27.73;;;25.10;35.00;;;;;;5051778;28;20477;-52
2022/04/03 06:15:51;;;;;;;30.77;29.57;;;25.20;34.80;;;;;;5051528;28;20468;-49
2022/04/03 06:18:20;;;;;;;27.90;26.90;;;25.20;34.70;;;;;;5051451;28;20452;-49
2022/04/03 06:20:47;;;;;;;29.20;28.00;;;25.20;34.70;;;;;;5050381;28;20480;-52
2022/04/03 06:23:15;;;;;;;28.67;27.57;;;25.10;34.90;;;;;;5051282;28;20935;-50
2022/04/03 06:25:42;;;;;;;30.07;28.87;;;25.00;35.30;;;;;;5051328;28;20879;-50
2022/04/03 06:28:09;;;;;;;29.97;28.87;;;25.00;35.50;;;;;;5051488;28;20467;-54
2022/04/03 06:30:37;;;;;;;29.50;28.40;;;25.10;35.50;;;;;;5051584;28;20528;-50
2022/04/03 06:33:04;;;;;;;30.47;29.20;;;25.20;35.60;;;;;;5051609;28;20444;-50
2022/04/03 06:35:32;;;;;;;29.83;28.73;;;25.30;35.40;;;;;;5051330;28;20475;-50
2022/04/03 06:37:59;;;;;;;31.93;30.73;;;25.20;35.40;;;;;;5050762;28;20476;-51
2022/04/03 06:40:26;;;;;;;27.48;26.08;;;25.20;35.20;;;;;;5050410;28;20569;-51
2022/04/03 06:42:53;;;;;;;30.87;29.67;;;25.20;35.30;;;;;;5051791;28;20232;-50
2022/04/03 06:45:21;;;;;;;31.07;29.57;;;25.10;35.20;;;;;;5051075;28;20468;-54
2022/04/03 06:47:48;;;;;;;30.00;28.80;;;25.00;35.40;;;;;;5051381;28;20448;-51
2022/04/03 06:50:15;;;;;;;31.10;29.90;;;24.90;35.50;;;;;;5051465;28;20445;-51
2022/04/03 06:52:43;;;;;;;31.77;30.57;;;24.70;35.60;;;;;;5051495;28;20456;-50
2022/04/03 06:55:10;;;;;;;30.27;29.07;;;24.60;35.70;;;;;;5051283;28;20444;-49
2022/04/03 06:57:37;;;;;;;28.87;27.80;;;24.50;35.80;;;;;;5051203;28;20449;-53
2022/04/03 07:00:06;;;;;;;31.90;30.63;;;24.50;35.90;;;;;;5051551;28;20440;-53
2022/04/03 07:02:33;;;;;;;29.77;28.67;;;24.30;35.90;;;;;;5051133;28;20492;-49
2022/04/03 07:05:00;;;;;;;28.97;27.87;;;24.20;36.10;;;;;;5051218;28;20518;-50
2022/04/03 07:07:27;;;;;;;30.10;29.00;;;24.20;36.10;;;;;;5051029;28;20823;-49
2022/04/03 07:09:55;;;;;;;29.37;28.27;;;24.10;36.20;;;;;;5051107;28;20448;-52
2022/04/03 07:12:23;;;;;;;28.97;27.87;;;24.00;36.30;;;;;;5051267;28;20975;-49
2022/04/03 07:14:50;;;;;;;28.53;27.53;;;24.00;36.30;;;;;;5051325;28;20467;-50
2022/04/03 07:17:17;;;;;;;29.43;28.33;;;23.90;36.20;;;;;;5051020;28;20471;-49
2022/04/03 07:19:44;;;;;;;29.30;28.20;;;23.90;36.40;;;;;;5050871;28;20453;-49
2022/04/03 07:22:11;;;;;;;30.20;29.10;;;23.80;36.30;;;;;;5051125;28;20472;-51
2022/04/03 07:24:38;;;;;;;29.30;28.20;;;23.80;36.30;;;;;;5051230;28;20448;-50
2022/04/03 07:27:07;;;;;;;29.80;28.60;;;23.80;36.40;;;;;;5050813;28;20503;-49
2022/04/03 07:29:36;;;;;;;29.47;28.27;;;23.70;36.40;;;;;;5050859;28;20448;-53
2022/04/03 07:32:05;;;;;;;30.10;28.80;;;23.70;35.60;;;;;;5050939;28;20947;-50
2022/04/03 07:34:32;;;;;;;30.80;29.60;;;23.60;36.00;;;;;;5050921;28;20447;-50
2022/04/03 07:36:59;;;;;;;29.73;28.57;;;23.60;36.50;;;;;;5050735;28;20479;-49
2022/04/03 07:39:26;;;;;;;29.40;28.30;;;23.50;36.60;;;;;;5050849;28;20448;-50
2022/04/03 07:41:53;;;;;;;30.80;29.60;;;23.50;36.70;;;;;;5050786;28;20488;-49
2022/04/03 07:44:21;;;;;;;29.88;28.77;;;23.40;36.90;;;;;;5050623;28;20389;-49
2022/04/03 07:46:48;;;;;;;30.30;29.20;;;23.30;37.00;;;;;;5050500;28;20226;-49
2022/04/03 07:49:14;;;;;;;31.97;30.67;;;23.30;37.20;;;;;;5050800;28;20447;-48
2022/04/03 07:51:42;;;;;;;29.93;28.83;;;23.30;37.30;;;;;;5050738;28;20444;-48
2022/04/03 07:54:09;;;;;;;29.52;28.33;;;23.50;36.70;;;;;;5050236;28;20451;-48
2022/04/03 07:56:37;;;;;;;32.23;30.93;;;23.40;34.20;;;;;;5050671;28;20245;-47
2022/04/03 07:59:06;;;;;;;30.10;28.90;;;23.30;32.90;;;;;;5054275;28;20832;-48
2022/04/03 08:01:34;;;;;;;32.40;30.90;;;23.10;31.80;;;;;;5053759;28;20480;-48
2022/04/03 08:04:01;;;;;;;32.13;30.83;;;22.90;31.50;;;;;;5054281;28;20448;-49
2022/04/03 08:06:27;;;;;;;31.97;30.60;;;22.80;27.70;;;;;;5053885;28;20831;-48
2022/04/03 08:08:54;;;;;;;33.13;31.80;;;22.50;26.10;;;;;;5054193;28;20444;-50
2022/04/03 08:11:21;;;;;;;33.33;31.77;;;22.20;26.10;;;;;;5054188;28;20455;-48
2022/04/03 08:13:48;;;;;;;33.37;31.97;;;21.80;26.30;;;;;;5054126;28;20798;-48
2022/04/03 08:16:15;;;;;;;31.07;29.67;;;21.50;27.00;;;;;;5053472;28;20472;-48
2022/04/03 08:18:43;;;;;;;33.33;32.00;;;21.30;27.20;;;;;;5054087;28;20982;-48
2022/04/03 08:21:10;;;;;;;32.53;31.10;;;21.00;26.80;;;;;;5053922;28;20448;-48
2022/04/03 08:23:37;;;;;;;31.57;30.17;;;20.60;28.10;;;;;;5054019;28;20448;-48
2022/04/03 08:26:04;;;;;;;31.47;30.00;;;20.40;27.60;;;;;;5053483;28;20472;-49
2022/04/03 08:28:31;;;;;;;31.70;30.37;;;20.20;28.00;;;;;;5053729;28;20444;-48
2022/04/03 08:30:58;;;;;;;33.07;31.33;;;20.20;30.30;;;;;;5053341;28;20444;-48
2022/04/03 08:33:25;;;;;;;34.30;32.50;;;20.20;33.30;;;;;;5053741;28;20480;-48
2022/04/03 08:35:53;;;;;;;32.33;30.83;;;20.10;33.10;;;;;;5053097;28;20471;-49
2022/04/03 08:38:20;;;;;;;32.90;31.40;;;20.10;33.20;;;;;;5053210;28;20788;-49
2022/04/03 08:40:47;;;;;;;33.13;31.73;;;19.90;32.20;;;;;;5053548;28;20444;-49
2022/04/03 08:43:14;;;;;;;33.57;32.17;;;19.80;33.20;;;;;;5053372;28;20480;-48
2022/04/03 08:45:40;;;;;;;31.87;30.23;;;19.60;31.90;;;;;;5052953;28;20468;-47
2022/04/03 08:48:09;;;;;;;31.97;30.20;;;19.40;32.40;;;;;;5053470;28;20448;-52
2022/04/03 08:50:37;;;;;;;32.77;31.27;;;19.40;39.30;;;;;;5053493;28;20459;-52
2022/04/03 08:53:07;;;;;;;28.75;27.15;;;19.50;41.80;;;;;;5052570;28;20440;-51
2022/04/03 08:55:35;;;;;;;31.73;29.93;;;19.60;43.60;;;;;;5052170;28;20245;-47
2022/04/03 08:58:02;;;;;;;32.33;30.80;;;19.70;42.20;;;;;;5053033;28;20522;-46
2022/04/03 09:00:31;;;;;;;30.50;29.10;;;19.70;41.90;;;;;;5053136;28;20448;-46
2022/04/03 09:02:57;;;;;;;31.57;29.57;;;19.80;41.90;;;;;;5053068;28;20565;-48
2022/04/03 09:05:37;;;;;;;30.70;28.80;;;19.70;42.40;;;;;;5053016;28;20467;-49
2022/04/03 09:08:06;;;;;;;34.17;32.00;;;19.70;41.50;;;;;;5052744;28;20448;-48
2022/04/03 09:10:33;;;;;;;31.37;29.87;;;19.70;41.10;;;;;;5052837;28;20445;-50
2022/04/03 09:13:00;;;;;;;30.03;28.63;;;19.70;41.10;;;;;;5053018;28;20785;-46
2022/04/03 09:15:28;;;;;;;31.60;30.20;;;19.70;41.00;;;;;;5052461;28;20471;-46
2022/04/03 09:17:56;;;;;;;29.43;28.23;;;19.70;40.70;;;;;;5052798;28;20448;-46
2022/04/03 09:20:25;;;;;;;30.93;29.50;;;19.80;40.90;;;;;;5052962;28;20751;-46
2022/04/03 09:22:54;;;;;;;31.23;29.73;;;19.90;40.80;;;;;;5052659;28;20484;-47
2022/04/03 09:25:26;;;;;;;30.20;28.80;;;19.80;40.50;;;;;;5052555;28;20998;-46
2022/04/03 09:27:55;;;;;;;30.43;29.07;;;19.90;40.60;;;;;;5052662;28;20441;-46
2022/04/03 09:30:23;;;;;;;30.90;29.50;;;19.90;40.20;;;;;;5052448;28;20535;-47
2022/04/03 09:32:51;;;;;;;30.80;29.60;;;20.00;40.20;;;;;;5052605;28;20445;-47
2022/04/03 09:35:20;;;;;;;30.57;29.10;;;20.00;40.20;;;;;;5052230;28;20979;-46
2022/04/03 09:38:13;;;;;;;32.20;30.70;;;20.20;40.20;;;;;;5052379;28;20448;-47
2022/04/03 09:40:43;;;;;;;32.37;30.87;;;20.20;39.80;;;;;;5052317;28;20444;-46
2022/04/03 09:43:20;;;;;;;30.83;29.60;;;20.30;39.70;;;;;;5052276;28;20838;-46
2022/04/03 09:45:48;;;;;;;31.00;29.60;;;20.30;39.50;;;;;;5052084;28;20471;-47
2022/04/03 09:48:27;;;;;;;31.97;30.47;;;20.30;40.00;;;;;;5052201;28;20440;-46
2022/04/03 09:51:03;;;;;;;30.07;28.77;;;20.30;39.40;;;;;;5052345;28;20440;-46
2022/04/03 09:53:40;;;;;;;30.33;29.03;;;20.20;39.30;;;;;;5052143;28;20943;-50
2022/04/03 09:56:09;;;;;;;31.73;30.13;;;20.20;39.40;;;;;;5051813;28;20475;-50
2022/04/03 09:58:45;;;;;;;31.47;29.87;;;20.20;39.40;;;;;;5052147;28;20566;-50
2022/04/03 10:01:26;;;;;;;30.23;28.87;;;20.20;39.20;;;;;;5052105;28;20451;-46
2022/04/03 10:03:54;;;;;;;30.33;29.00;;;20.10;39.30;;;;;;5051920;28;20440;-47
2022/04/03 10:06:23;;;;;;;29.20;27.90;;;20.10;39.40;;;;;;5051582;28;20467;-47
2022/04/03 10:08:50;;;;;;;29.57;28.37;;;20.00;39.50;;;;;;5051936;28;20727;-47
2022/04/03 10:11:19;;;;;;;31.43;30.23;;;20.10;39.60;;;;;;5051901;28;20447;-46
2022/04/03 10:13:46;;;;;;;30.80;29.50;;;20.10;39.50;;;;;;5051836;28;20441;-46
2022/04/03 10:16:14;;;;;;;30.37;29.03;;;20.10;39.60;;;;;;5051524;28;20552;-48
2022/04/03 10:18:41;;;;;;;29.27;28.07;;;20.00;39.60;;;;;;5051867;28;21096;-47
2022/04/03 10:21:14;;;;;;;30.30;29.10;;;20.00;39.60;;;;;;5051046;28;20448;-47
2022/04/03 10:23:42;;;;;;;30.00;28.70;;;20.00;39.50;;;;;;5051530;28;20484;-47
2022/04/03 10:26:10;;;;;;;30.27;29.03;;;20.00;39.50;;;;;;5051306;28;20806;-46
2022/04/03 10:28:41;;;;;;;29.10;28.00;;;20.00;39.40;;;;;;5051380;28;20440;-46
2022/04/03 10:31:08;;;;;;;29.20;27.83;;;20.00;39.50;;;;;;5051558;28;20444;-47
2022/04/03 10:33:40;;;;;;;29.17;28.03;;;20.00;39.50;;;;;;5051583;28;20444;-48
2022/04/03 10:36:08;;;;;;;28.80;27.70;;;20.00;39.30;;;;;;5051114;28;20468;-48
2022/04/03 10:38:37;;;;;;;30.00;28.70;;;20.00;39.30;;;;;;5051430;28;20453;-46
2022/04/03 10:41:05;;;;;;;29.57;28.40;;;20.00;39.20;;;;;;5051384;28;20502;-47
2022/04/03 10:43:37;;;;;;;29.40;28.30;;;20.00;39.30;;;;;;5051256;28;20855;-48
2022/04/03 10:46:06;;;;;;;28.73;27.53;;;20.00;39.30;;;;;;5051351;28;20469;-48
2022/04/03 10:48:33;;;;;;;28.70;27.60;;;20.00;39.30;;;;;;5051390;28;20993;-47
2022/04/03 10:51:05;;;;;;;28.33;27.13;;;20.10;39.30;;;;;;5051287;28;20444;-48
2022/04/03 10:53:34;;;;;;;29.97;28.67;;;20.20;39.00;;;;;;5051279;28;20858;-50
2022/04/03 10:56:07;;;;;;;28.67;27.57;;;20.30;38.90;;;;;;5050949;28;20512;-47
2022/04/03 10:58:43;;;;;;;30.33;29.03;;;20.30;38.60;;;;;;5051186;28;20440;-47
2022/04/03 11:01:23;;;;;;;29.60;28.50;;;20.40;38.40;;;;;;5051282;28;20866;-52
2022/04/03 11:03:57;;;;;;;29.97;28.80;;;20.40;38.40;;;;;;5051187;28;20480;-48
2022/04/03 11:06:37;;;;;;;29.30;28.10;;;20.40;38.30;;;;;;5050917;28;20464;-48
2022/04/03 11:09:13;;;;;;;30.30;29.10;;;20.40;38.40;;;;;;5051273;28;20448;-48
2022/04/03 11:12:01;;;;;;;29.60;28.50;;;20.50;38.30;;;;;;5051218;28;20444;-49
2022/04/03 11:14:56;;;;;;;30.10;28.90;;;20.50;38.60;;;;;;5046991;28;20449;-46
2022/04/03 11:17:46;;;;;;;30.30;29.20;;;20.40;38.10;;;;;;5050969;28;20452;-50
2022/04/03 11:20:32;;;;;;;31.67;30.47;;;20.30;38.20;;;;;;5051132;28;20468;-46
2022/04/03 11:23:00;;;;;;;29.47;28.27;;;20.30;38.20;;;;;;5050844;28;20480;-46
2022/04/03 11:25:26;;;;;;;29.43;28.23;;;20.30;38.20;;;;;;5050825;28;20872;-46
2022/04/03 11:27:53;;;;;;;28.77;27.73;;;20.50;38.20;;;;;;5050835;28;20452;-46
2022/04/03 11:30:20;;;;;;;30.07;28.87;;;20.90;37.90;;;;;;5050864;28;20444;-47
2022/04/03 11:32:50;;;;;;;30.20;29.00;;;20.70;37.60;;;;;;5054789;28;20818;-49
2022/04/03 11:35:31;;;;;;;30.13;28.93;;;20.60;37.50;;;;;;5054579;28;20847;-46
2022/04/03 11:37:58;;;;;;;31.37;30.17;;;20.60;37.50;;;;;;5054554;28;20935;-46
2022/04/03 11:40:25;;;;;;;31.30;29.93;;;20.80;37.50;;;;;;5054691;28;20455;-46
2022/04/03 11:43:09;;;;;;;30.80;29.50;;;21.60;37.30;;;;;;5054476;28;20480;-49
2022/04/03 11:45:36;;;;;;;32.00;30.80;;;23.00;36.10;;;;;;5054450;28;20467;-49
2022/04/03 11:48:21;;;;;;;31.13;29.93;;;24.40;34.50;;;;;;5054548;28;20546;-49
2022/04/03 11:50:49;;;;;;;32.03;30.83;;;25.60;32.80;;;;;;5054489;28;20862;-50
2022/04/03 11:53:18;;;;;;;31.30;30.00;;;26.30;31.50;;;;;;5054341;28;20623;-47
2022/04/03 11:55:45;;;;;;;30.30;29.10;;;26.30;30.50;;;;;;5054527;28;21005;-47
2022/04/03 11:58:12;;;;;;;32.37;31.10;;;25.50;30.80;;;;;;5054343;28;20456;-52
2022/04/03 12:00:45;;;;;;;31.03;29.83;;;26.10;31.10;;;;;;5054502;28;20815;-50
2022/04/03 12:03:12;;;;;;;31.13;29.93;;;25.80;30.60;;;;;;5054424;28;20480;-51
2022/04/03 12:05:42;;;;;;;30.73;29.63;;;26.50;31.00;;;;;;5054421;28;20463;-49
2022/04/03 12:08:08;;;;;;;30.80;29.60;;;27.40;30.10;;;;;;5054720;28;20452;-53
2022/04/03 12:10:35;;;;;;;31.17;29.97;;;28.10;29.30;;;;;;5054404;28;20455;-48
2022/04/03 12:13:05;;;;;;;30.30;29.07;;;27.20;29.00;;;;;;5054258;28;20450;-46
2022/04/03 12:15:33;;;;;;;29.97;28.87;;;27.20;29.70;;;;;;5054352;28;20500;-51
2022/04/03 12:18:03;;;;;;;31.10;29.90;;;28.30;29.20;;;;;;5054544;28;20444;-46
2022/04/03 12:20:35;;;;;;;32.03;30.73;;;28.30;28.70;;;;;;5054523;28;20792;-48
2022/04/03 12:23:08;;;;;;;30.87;29.57;;;27.20;28.70;;;;;;5053966;28;20565;-48
2022/04/03 12:25:35;;;;;;;31.33;30.13;;;26.10;29.50;;;;;;5053501;28;20474;-50
2022/04/03 12:28:02;;;;;;;30.27;29.10;;;25.30;30.20;;;;;;5053681;28;20506;-50
2022/04/03 12:30:31;;;;;;;29.73;28.63;;;26.50;31.00;;;;;;5054108;28;20828;-49
2022/04/03 12:32:58;;;;;;;31.63;30.43;;;27.60;30.00;;;;;;5054071;28;20445;-54